Star Flyer — 9HA2512 — position and weather

sailwx.info

Track history (hours):
 
Tides and Currents Weather Stations Pressure Air Temp Water Temp Dewpoint Dewpoint Depression Visibility Wind Speed Wind Dir Waves Ship Positions

Star Flyer

Last reported at 2017-Nov-07 21:29 UTC. Time now 2017-Nov-18 19:54 UTC.
Position N 27°50' W 015°21'.
Warning: this ship's position is 10 days out of date.

Length 112 m; draft 5.9 m.

Type: Ship. MMSI: 248785000.

Date/timePositionNaut miles runAvg speedWind from/ knotsBaromVisibWave heightAir tempDewpointWater temp
2017-Nov-07 21:29N 27°50' W 015°21'4 9.0
2017-Nov-07 21:00N 27°54' W 015°19'5 9.9
2017-Nov-07 20:30N 27°59' W 015°19'4 9.0
2017-Nov-07 20:00N 28°04' W 015°20'4 8.7
2017-Nov-07 19:30N 28°07' W 015°24'2 4.6
2017-Nov-07 18:59N 28°08' W 015°25'0 0.0
2017-Nov-07 18:20N 28°08' W 015°25'0 0.0
2017-Nov-07 17:50N 28°08' W 015°25'0 0.0
2017-Nov-07 17:23N 28°08' W 015°25'0 0.0
2017-Nov-07 16:53N 28°08' W 015°25'0 0.0
2017-Nov-07 16:23N 28°08' W 015°25'0 0.0
2017-Nov-07 15:56N 28°08' W 015°25'0 0.0
2017-Nov-07 15:23N 28°08' W 015°25'0 0.0
2017-Nov-07 14:56N 28°08' W 015°25'0 0.0
2017-Nov-07 14:26N 28°08' W 015°25'0 0.0
2017-Nov-07 13:56N 28°08' W 015°25'0 0.0
2017-Nov-07 13:26N 28°08' W 015°25'0 0.0
2017-Nov-07 12:56N 28°08' W 015°25'0 0.0
2017-Nov-07 12:26N 28°08' W 015°25'0 0.0
2017-Nov-07 11:56N 28°08' W 015°25'0 0.0
2017-Nov-07 11:11N 28°08' W 015°25'0 0.0
2017-Nov-07 10:59N 28°08' W 015°25'0 0.0
2017-Nov-07 10:29N 28°08' W 015°25'0 0.0
2017-Nov-07 09:59N 28°08' W 015°25'0 0.0
2017-Nov-07 09:29N 28°08' W 015°25'0 0.0
2017-Nov-07 08:59N 28°08' W 015°25'0 0.0
2017-Nov-07 08:29N 28°08' W 015°25'0 0.0
2017-Nov-07 07:59N 28°08' W 015°25'0 0.0
2017-Nov-07 07:29N 28°08' W 015°25'0 0.0
2017-Nov-07 06:59N 28°08' W 015°25'0 0.7
2017-Nov-07 06:30N 28°08' W 015°25'2 4.4
2017-Nov-07 06:01N 28°07' W 015°23'3 6.3
2017-Nov-07 05:31N 28°08' W 015°20'5 9.1
2017-Nov-07 05:01N 28°11' W 015°15'5 9.2
2017-Nov-07 04:31N 28°13' W 015°11'5 9.1
2017-Nov-07 04:01N 28°15' W 015°07'4 8.9
2017-Nov-07 03:31N 28°17' W 015°02'5 9.0
2017-Nov-07 03:01N 28°20' W 014°58'4 8.9
2017-Nov-07 02:31N 28°22' W 014°53'4 8.8
2017-Nov-07 02:00N 28°24' W 014°49'5 9.1
2017-Nov-07 01:29N 28°26' W 014°44'  
2017-Oct-29 07:59N 37°33' W 000°59'2 3.7
2017-Oct-29 07:27N 37°33' W 000°57'3 5.9
2017-Oct-29 07:00N 37°33' W 000°53'3 6.6
2017-Oct-29 06:29N 37°32' W 000°49'3 6.8
2017-Oct-29 06:00N 37°32' W 000°45'5 7.3
2017-Oct-29 05:20N 37°33' W 000°39'2 7.4
2017-Oct-29 05:00N 37°33' W 000°36'4 7.1
2017-Oct-29 04:30N 37°35' W 000°32'4 8.1
2017-Oct-29 04:00N 37°38' W 000°28'  
Track history (hours):
 
Tides and Currents Weather Stations Pressure Air Temp Water Temp Dewpoint Dewpoint Depression Visibility Wind Speed Wind Dir Waves Ship Positions

Star Flyer

Last reported at 2017-Nov-07 21:29 UTC. Time now 2017-Nov-18 19:54 UTC.
Position N 27°50' W 015°21'.
Warning: this ship's position is 10 days out of date.

Length 112 m; draft 5.9 m.

Type: Ship. MMSI: 248785000.

Date/timePositionNaut miles runAvg speedWind from/ knotsBaromVisibWave heightAir tempDewpointWater temp
2017-Nov-07 21:29N 27°50' W 015°21'4 9.0
2017-Nov-07 21:00N 27°54' W 015°19'5 9.9
2017-Nov-07 20:30N 27°59' W 015°19'4 9.0
2017-Nov-07 20:00N 28°04' W 015°20'4 8.7
2017-Nov-07 19:30N 28°07' W 015°24'2 4.6
2017-Nov-07 18:59N 28°08' W 015°25'0 0.0
2017-Nov-07 18:20N 28°08' W 015°25'0 0.0
2017-Nov-07 17:50N 28°08' W 015°25'0 0.0
2017-Nov-07 17:23N 28°08' W 015°25'0 0.0
2017-Nov-07 16:53N 28°08' W 015°25'0 0.0
2017-Nov-07 16:23N 28°08' W 015°25'0 0.0
2017-Nov-07 15:56N 28°08' W 015°25'0 0.0
2017-Nov-07 15:23N 28°08' W 015°25'0 0.0
2017-Nov-07 14:56N 28°08' W 015°25'0 0.0
2017-Nov-07 14:26N 28°08' W 015°25'0 0.0
2017-Nov-07 13:56N 28°08' W 015°25'0 0.0
2017-Nov-07 13:26N 28°08' W 015°25'0 0.0
2017-Nov-07 12:56N 28°08' W 015°25'0 0.0
2017-Nov-07 12:26N 28°08' W 015°25'0 0.0
2017-Nov-07 11:56N 28°08' W 015°25'0 0.0
2017-Nov-07 11:11N 28°08' W 015°25'0 0.0
2017-Nov-07 10:59N 28°08' W 015°25'0 0.0
2017-Nov-07 10:29N 28°08' W 015°25'0 0.0
2017-Nov-07 09:59N 28°08' W 015°25'0 0.0
2017-Nov-07 09:29N 28°08' W 015°25'0 0.0
2017-Nov-07 08:59N 28°08' W 015°25'0 0.0
2017-Nov-07 08:29N 28°08' W 015°25'0 0.0
2017-Nov-07 07:59N 28°08' W 015°25'0 0.0
2017-Nov-07 07:29N 28°08' W 015°25'0 0.0
2017-Nov-07 06:59N 28°08' W 015°25'0 0.7
2017-Nov-07 06:30N 28°08' W 015°25'2 4.4
2017-Nov-07 06:01N 28°07' W 015°23'3 6.3
2017-Nov-07 05:31N 28°08' W 015°20'5 9.1
2017-Nov-07 05:01N 28°11' W 015°15'5 9.2
2017-Nov-07 04:31N 28°13' W 015°11'5 9.1
2017-Nov-07 04:01N 28°15' W 015°07'4 8.9
2017-Nov-07 03:31N 28°17' W 015°02'5 9.0
2017-Nov-07 03:01N 28°20' W 014°58'4 8.9
2017-Nov-07 02:31N 28°22' W 014°53'4 8.8
2017-Nov-07 02:00N 28°24' W 014°49'5 9.1
2017-Nov-07 01:29N 28°26' W 014°44'  
2017-Oct-29 07:59N 37°33' W 000°59'2 3.7
2017-Oct-29 07:27N 37°33' W 000°57'3 5.9
2017-Oct-29 07:00N 37°33' W 000°53'3 6.6
2017-Oct-29 06:29N 37°32' W 000°49'3 6.8
2017-Oct-29 06:00N 37°32' W 000°45'5 7.3
2017-Oct-29 05:20N 37°33' W 000°39'2 7.4
2017-Oct-29 05:00N 37°33' W 000°36'4 7.1
2017-Oct-29 04:30N 37°35' W 000°32'4 8.1
2017-Oct-29 04:00N 37°38' W 000°28'  

Dump ship's entire track history